Time;durP1;ratioP1;P1;durP2;ratioP2;P2;SDS_P1;SDS_P2;PMS_P1;PMS_P2;Temp;Humidity;BMP_temperature;BMP_pressure;BME280_temperature;BME280_humidity;BME280_pressure;Samples;Min_cycle;Max_cycle;Signal;HPM_P1;HPM_P2
2021/06/17 00:02:05;;;;;;;32.20;23.50;;;;;;;;;;763473;182;915629;-68
2021/06/17 00:04:31;;;;;;;33.10;23.27;;;;;;;;;;761707;183;919141;-68
2021/06/17 00:06:57;;;;;;;34.53;22.47;;;;;;;;;;760067;183;919563;-68
2021/06/17 00:09:23;;;;;;;29.70;23.53;;;;;;;;;;766453;182;917609;-68
2021/06/17 00:11:48;;;;;;;28.83;23.10;;;;;;;;;;754639;184;918627;-68
2021/06/17 00:14:14;;;;;;;23.77;21.20;;;;;;;;;;752544;184;919754;-69
2021/06/17 00:16:40;;;;;;;30.70;24.77;;;;;;;;;;764886;183;992662;-68
2021/06/17 00:19:06;;;;;;;28.43;23.60;;;;;;;;;;758112;182;920171;-69
2021/06/17 00:21:32;;;;;;;31.93;23.70;;;;;;;;;;757999;184;919226;-68
2021/06/17 00:23:58;;;;;;;26.87;22.07;;;;;;;;;;764097;182;919411;-68
2021/06/17 00:26:24;;;;;;;26.43;23.60;;;;;;;;;;761093;182;918068;-68
2021/06/17 00:28:49;;;;;;;30.97;25.43;;;;;;;;;;759441;183;919422;-69
2021/06/17 00:31:15;;;;;;;30.80;23.87;;;;;;;;;;759692;182;920731;-69
2021/06/17 00:33:41;;;;;;;29.25;24.45;;;;;;;;;;765119;182;919258;-69
2021/06/17 00:36:07;;;;;;;34.80;25.50;;;;;;;;;;757358;182;918979;-68
2021/06/17 00:38:33;;;;;;;27.80;23.30;;;;;;;;;;763063;182;919448;-68
2021/06/17 00:40:59;;;;;;;30.17;24.00;;;;;;;;;;766951;182;918571;-68
2021/06/17 00:43:25;;;;;;;31.73;25.57;;;;;;;;;;756393;184;918331;-68
2021/06/17 00:45:52;;;;;;;32.83;25.53;;;;;;;;;;760681;183;919668;-68
2021/06/17 00:48:16;;;;;;;31.33;24.70;;;;;;;;;;762147;183;941729;-68
2021/06/17 00:50:42;;;;;;;27.13;24.23;;;;;;;;;;758304;183;917915;-69
2021/06/17 00:53:08;;;;;;;35.00;25.60;;;;;;;;;;759115;183;1019757;-68
2021/06/17 00:55:34;;;;;;;30.00;24.77;;;;;;;;;;756466;183;918367;-68
2021/06/17 00:58:00;;;;;;;26.27;23.03;;;;;;;;;;760536;182;918871;-69
2021/06/17 01:00:25;;;;;;;30.60;22.83;;;;;;;;;;760876;183;915367;-69
2021/06/17 01:02:51;;;;;;;30.50;23.30;;;;;;;;;;760935;182;921774;-68
2021/06/17 01:05:17;;;;;;;31.30;23.03;;;;;;;;;;761255;183;916652;-68
2021/06/17 01:07:44;;;;;;;29.20;22.80;;;;;;;;;;760472;182;948034;-69
2021/06/17 01:10:12;;;;;;;29.12;24.95;;;;;;;;;;763880;182;873007;-68
2021/06/17 01:12:45;;;;;;;29.47;23.03;;;;;;;;;;766785;182;919942;-68
2021/06/17 01:15:11;;;;;;;28.00;23.63;;;;;;;;;;757244;185;921144;-68
2021/06/17 01:17:38;;;;;;;30.83;25.33;;;;;;;;;;761662;183;919800;-68
2021/06/17 01:20:04;;;;;;;31.70;22.98;;;;;;;;;;759518;183;920247;-68
2021/06/17 01:22:31;;;;;;;31.10;24.40;;;;;;;;;;763651;182;919822;-67
2021/06/17 01:25:07;;;;;;;32.63;25.07;;;;;;;;;;760781;182;935503;-68
2021/06/17 01:27:36;;;;;;;31.63;24.97;;;;;;;;;;756180;182;920159;-69
2021/06/17 01:30:01;;;;;;;39.78;24.25;;;;;;;;;;758471;183;1019122;-69
2021/06/17 01:32:27;;;;;;;30.63;23.83;;;;;;;;;;768306;182;919475;-70
2021/06/17 01:34:53;;;;;;;32.60;24.47;;;;;;;;;;761812;182;919667;-70
2021/06/17 01:37:19;;;;;;;29.07;23.40;;;;;;;;;;755689;184;920224;-70
2021/06/17 01:39:45;;;;;;;29.60;23.30;;;;;;;;;;755435;183;916686;-69
2021/06/17 01:42:11;;;;;;;27.57;23.93;;;;;;;;;;759240;183;916252;-69
2021/06/17 01:44:36;;;;;;;24.67;21.98;;;;;;;;;;759543;182;915721;-69
2021/06/17 01:47:03;;;;;;;25.60;22.67;;;;;;;;;;761539;182;915590;-69
2021/06/17 01:49:29;;;;;;;31.23;22.60;;;;;;;;;;766045;182;911907;-69
2021/06/17 01:51:55;;;;;;;29.90;22.20;;;;;;;;;;759483;182;915532;-69
2021/06/17 01:54:21;;;;;;;25.40;21.47;;;;;;;;;;759847;182;1021523;-69
2021/06/17 01:56:47;;;;;;;28.10;22.57;;;;;;;;;;763983;182;919320;-69
2021/06/17 01:59:13;;;;;;;29.77;20.47;;;;;;;;;;759399;183;919673;-69
2021/06/17 02:01:39;;;;;;;29.10;21.60;;;;;;;;;;762111;183;919367;-69
2021/06/17 02:04:05;;;;;;;30.12;22.30;;;;;;;;;;765657;183;918277;-69
2021/06/17 02:06:31;;;;;;;27.53;21.03;;;;;;;;;;760534;183;933957;-70
2021/06/17 02:08:57;;;;;;;31.20;19.80;;;;;;;;;;759672;183;920414;-68
2021/06/17 02:11:22;;;;;;;25.73;21.03;;;;;;;;;;758856;182;918352;-68
2021/06/17 02:13:48;;;;;;;25.13;21.60;;;;;;;;;;765790;182;919540;-69
2021/06/17 02:16:14;;;;;;;23.13;20.57;;;;;;;;;;760552;182;924142;-69
2021/06/17 02:18:40;;;;;;;32.17;21.20;;;;;;;;;;758742;182;919456;-68
2021/06/17 02:21:07;;;;;;;29.90;20.40;;;;;;;;;;769292;182;919008;-69
2021/06/17 02:23:33;;;;;;;32.07;21.43;;;;;;;;;;755329;184;918583;-68
2021/06/17 02:25:59;;;;;;;30.10;21.48;;;;;;;;;;757199;183;919495;-68
2021/06/17 02:28:24;;;;;;;29.20;20.73;;;;;;;;;;762180;183;902546;-68
2021/06/17 02:30:50;;;;;;;26.17;20.37;;;;;;;;;;758846;182;918921;-68
2021/06/17 02:33:16;;;;;;;24.20;19.77;;;;;;;;;;759953;184;918760;-68
2021/06/17 02:35:43;;;;;;;33.07;20.47;;;;;;;;;;759012;182;919604;-68
2021/06/17 02:38:08;;;;;;;25.33;19.67;;;;;;;;;;759262;184;919118;-68
2021/06/17 02:40:34;;;;;;;23.53;18.43;;;;;;;;;;757342;183;928423;-68
2021/06/17 02:43:00;;;;;;;23.93;19.27;;;;;;;;;;761078;182;919150;-69
2021/06/17 02:45:26;;;;;;;24.13;18.53;;;;;;;;;;767366;183;918531;-69
2021/06/17 02:47:51;;;;;;;28.20;19.03;;;;;;;;;;756922;184;919276;-68
2021/06/17 02:50:17;;;;;;;25.75;19.05;;;;;;;;;;753663;184;1021973;-68
2021/06/17 02:52:43;;;;;;;22.70;19.50;;;;;;;;;;756729;184;918613;-68
2021/06/17 02:55:09;;;;;;;23.87;19.27;;;;;;;;;;757425;183;923526;-68
2021/06/17 02:57:50;;;;;;;24.50;19.73;;;;;;;;;;761109;182;919300;-68
2021/06/17 03:00:17;;;;;;;20.23;17.13;;;;;;;;;;761809;182;927739;-69
2021/06/17 03:02:59;;;;;;;22.77;16.93;;;;;;;;;;760515;183;916870;-69
2021/06/17 03:05:24;;;;;;;19.27;14.43;;;;;;;;;;766373;182;919130;-68
2021/06/17 03:07:50;;;;;;;22.10;17.50;;;;;;;;;;761439;182;922830;-67
2021/06/17 03:10:16;;;;;;;22.47;18.50;;;;;;;;;;761597;183;919510;-69
2021/06/17 03:12:42;;;;;;;24.53;19.50;;;;;;;;;;761336;183;918563;-68
2021/06/17 03:15:08;;;;;;;23.17;18.03;;;;;;;;;;767728;182;915889;-68
2021/06/17 03:17:34;;;;;;;21.53;17.00;;;;;;;;;;760723;183;916011;-68
2021/06/17 03:20:00;;;;;;;22.70;18.97;;;;;;;;;;761708;182;921346;-68
2021/06/17 03:22:26;;;;;;;25.27;19.33;;;;;;;;;;764244;182;919079;-68
2021/06/17 03:24:52;;;;;;;25.20;20.33;;;;;;;;;;759605;182;919124;-68
2021/06/17 03:27:17;;;;;;;25.50;21.47;;;;;;;;;;760113;182;918999;-69
2021/06/17 03:29:47;;;;;;;25.97;20.00;;;;;;;;;;761990;182;917986;-68
2021/06/17 03:32:13;;;;;;;30.23;20.63;;;;;;;;;;763127;183;918491;-68
2021/06/17 03:34:39;;;;;;;25.17;22.27;;;;;;;;;;758609;182;918639;-68
2021/06/17 03:37:05;;;;;;;28.37;21.03;;;;;;;;;;759155;182;922390;-68
2021/06/17 03:39:30;;;;;;;23.50;18.50;;;;;;;;;;766260;182;918194;-68
2021/06/17 03:41:56;;;;;;;22.73;20.30;;;;;;;;;;757704;184;918864;-69
2021/06/17 03:44:23;;;;;;;27.87;20.05;;;;;;;;;;754059;184;918893;-69
2021/06/17 03:46:48;;;;;;;24.17;20.17;;;;;;;;;;748092;186;919401;-69
2021/06/17 03:49:14;;;;;;;21.90;18.40;;;;;;;;;;734861;190;918024;-68
2021/06/17 03:51:39;;;;;;;22.50;17.77;;;;;;;;;;748155;186;919692;-69
2021/06/17 03:54:05;;;;;;;24.93;16.70;;;;;;;;;;754397;186;918664;-69
2021/06/17 03:56:31;;;;;;;19.80;16.90;;;;;;;;;;755422;184;920663;-69
2021/06/17 03:58:57;;;;;;;19.83;15.70;;;;;;;;;;761051;182;919035;-69
2021/06/17 04:01:23;;;;;;;21.17;14.77;;;;;;;;;;751079;184;919501;-69
2021/06/17 04:03:49;;;;;;;16.43;14.60;;;;;;;;;;751685;185;925694;-69
2021/06/17 04:06:17;;;;;;;19.00;16.33;;;;;;;;;;758094;184;635398;-69
2021/06/17 04:08:40;;;;;;;22.03;15.90;;;;;;;;;;748711;186;918412;-70
2021/06/17 04:11:06;;;;;;;19.20;15.53;;;;;;;;;;755102;186;852677;-69
2021/06/17 04:13:33;;;;;;;19.80;14.60;;;;;;;;;;758987;183;919120;-68
2021/06/17 04:15:59;;;;;;;16.43;14.43;;;;;;;;;;758010;183;919477;-69
2021/06/17 04:18:25;;;;;;;18.30;14.30;;;;;;;;;;765517;182;919652;-71
2021/06/17 04:20:50;;;;;;;16.30;14.60;;;;;;;;;;757937;183;918370;-67
2021/06/17 04:23:16;;;;;;;16.33;14.00;;;;;;;;;;753949;183;919213;-70
2021/06/17 04:25:42;;;;;;;17.43;14.23;;;;;;;;;;753549;183;919175;-68
2021/06/17 04:28:08;;;;;;;14.93;13.40;;;;;;;;;;765795;181;973415;-69
2021/06/17 04:30:34;;;;;;;16.43;14.10;;;;;;;;;;762030;183;921318;-70
2021/06/17 04:33:00;;;;;;;19.50;15.80;;;;;;;;;;757042;182;919405;-69
2021/06/17 04:35:26;;;;;;;17.20;13.73;;;;;;;;;;765056;182;921753;-69
2021/06/17 04:37:52;;;;;;;18.10;13.90;;;;;;;;;;760013;182;921875;-70
2021/06/17 04:40:17;;;;;;;16.60;13.65;;;;;;;;;;761436;182;926508;-70
2021/06/17 04:42:43;;;;;;;17.63;13.93;;;;;;;;;;764457;183;917753;-70
2021/06/17 04:45:09;;;;;;;16.80;14.00;;;;;;;;;;759217;183;918992;-71
2021/06/17 04:47:37;;;;;;;17.60;12.90;;;;;;;;;;762010;182;916536;-71
2021/06/17 04:50:01;;;;;;;13.00;11.63;;;;;;;;;;767898;182;915929;-71
2021/06/17 04:52:30;;;;;;;17.20;13.83;;;;;;;;;;747889;185;916104;-69
2021/06/17 04:54:56;;;;;;;20.30;13.60;;;;;;;;;;763572;182;915706;-70
2021/06/17 04:57:21;;;;;;;18.40;15.83;;;;;;;;;;760442;183;641648;-71
2021/06/17 04:59:47;;;;;;;17.83;13.27;;;;;;;;;;758596;183;635481;-71
2021/06/17 05:02:13;;;;;;;18.17;13.60;;;;;;;;;;762022;183;625441;-71
2021/06/17 05:04:39;;;;;;;21.85;13.20;;;;;;;;;;763280;182;661300;-71
2021/06/17 05:12:17;;;;;;;15.90;12.00;;;;;;;;;;734868;190;919130;-70
2021/06/17 05:14:43;;;;;;;16.20;12.80;;;;;;;;;;749856;185;919327;-70
2021/06/17 05:17:09;;;;;;;14.93;10.60;;;;;;;;;;754348;184;919440;-68
2021/06/17 05:19:35;;;;;;;16.60;13.10;;;;;;;;;;752639;184;1019943;-69
2021/06/17 05:22:01;;;;;;;15.93;11.43;;;;;;;;;;735933;189;919236;-69
2021/06/17 05:24:27;;;;;;;17.30;12.33;;;;;;;;;;755385;182;919113;-69
2021/06/17 05:26:52;;;;;;;23.17;11.40;;;;;;;;;;768780;182;918636;-68
2021/06/17 05:29:18;;;;;;;11.47;10.03;;;;;;;;;;759612;182;920231;-70
2021/06/17 05:31:44;;;;;;;15.57;12.27;;;;;;;;;;756122;184;918881;-70
2021/06/17 05:34:10;;;;;;;12.50;11.17;;;;;;;;;;767350;183;919189;-70
2021/06/17 05:36:36;;;;;;;23.03;12.03;;;;;;;;;;759360;183;919654;-70
2021/06/17 05:39:02;;;;;;;16.60;11.30;;;;;;;;;;757674;182;1124901;-70
2021/06/17 05:41:27;;;;;;;15.30;11.03;;;;;;;;;;760871;182;919049;-69
2021/06/17 05:43:54;;;;;;;14.23;11.43;;;;;;;;;;759724;182;921610;-69
2021/06/17 05:46:19;;;;;;;14.43;10.83;;;;;;;;;;760176;183;920310;-68
2021/06/17 05:48:45;;;;;;;13.70;11.00;;;;;;;;;;760039;182;919316;-68
2021/06/17 05:51:11;;;;;;;18.23;10.97;;;;;;;;;;764138;183;919129;-69
2021/06/17 05:53:37;;;;;;;12.07;10.60;;;;;;;;;;757401;183;920043;-70
2021/06/17 05:56:02;;;;;;;12.57;10.52;;;;;;;;;;760695;182;918773;-69
2021/06/17 05:58:29;;;;;;;12.77;10.60;;;;;;;;;;765620;183;919837;-68
2021/06/17 06:00:54;;;;;;;15.50;9.57;;;;;;;;;;756763;184;920099;-70
2021/06/17 06:03:20;;;;;;;13.67;9.47;;;;;;;;;;751238;184;919104;-70
2021/06/17 06:05:46;;;;;;;20.53;10.20;;;;;;;;;;756192;184;920715;-69
2021/06/17 06:08:12;;;;;;;15.37;10.47;;;;;;;;;;750822;184;918874;-69
2021/06/17 06:10:38;;;;;;;11.17;8.57;;;;;;;;;;749179;184;919805;-67
2021/06/17 06:13:03;;;;;;;11.70;9.50;;;;;;;;;;753319;184;917968;-69
2021/06/17 06:15:36;;;;;;;19.30;9.43;;;;;;;;;;757961;184;919258;-70
2021/06/17 06:18:03;;;;;;;13.63;9.30;;;;;;;;;;754563;184;920469;-70
2021/06/17 06:20:28;;;;;;;12.43;8.80;;;;;;;;;;762819;183;919498;-70
2021/06/17 06:22:54;;;;;;;17.27;8.90;;;;;;;;;;764775;182;914665;-69
2021/06/17 06:25:20;;;;;;;13.45;8.63;;;;;;;;;;761362;182;915615;-70
2021/06/17 06:27:46;;;;;;;16.43;9.93;;;;;;;;;;763464;182;916275;-70
2021/06/17 06:30:12;;;;;;;13.13;8.40;;;;;;;;;;756673;183;908971;-71
2021/06/17 06:32:38;;;;;;;15.60;9.30;;;;;;;;;;768455;182;915969;-70
2021/06/17 06:35:06;;;;;;;12.40;8.03;;;;;;;;;;762078;183;916839;-69
2021/06/17 06:37:32;;;;;;;21.10;9.93;;;;;;;;;;761284;182;922093;-68
2021/06/17 06:39:58;;;;;;;11.50;8.50;;;;;;;;;;767705;183;917008;-68
2021/06/17 06:42:23;;;;;;;11.53;8.60;;;;;;;;;;757771;182;1021907;-71
2021/06/17 06:44:49;;;;;;;10.95;8.93;;;;;;;;;;758732;182;1020036;-68
2021/06/17 06:47:15;;;;;;;12.80;8.30;;;;;;;;;;758638;184;919154;-70
2021/06/17 06:49:41;;;;;;;13.53;8.90;;;;;;;;;;756040;183;919910;-70
2021/06/17 06:52:07;;;;;;;11.83;8.03;;;;;;;;;;754292;184;918799;-69
2021/06/17 06:54:33;;;;;;;10.20;7.43;;;;;;;;;;757022;183;917401;-70
2021/06/17 06:56:59;;;;;;;14.80;8.23;;;;;;;;;;765145;182;918770;-69
2021/06/17 06:59:25;;;;;;;7.82;7.03;;;;;;;;;;759357;183;919643;-69
2021/06/17 07:01:51;;;;;;;10.63;7.50;;;;;;;;;;759184;182;918960;-70
2021/06/17 07:04:16;;;;;;;7.90;6.57;;;;;;;;;;765437;182;917603;-70
2021/06/17 07:06:42;;;;;;;8.87;6.93;;;;;;;;;;759823;182;918138;-69
2021/06/17 07:09:08;;;;;;;10.20;7.50;;;;;;;;;;759831;182;915340;-70
2021/06/17 07:11:34;;;;;;;8.37;5.90;;;;;;;;;;764639;182;921764;-68
2021/06/17 07:14:00;;;;;;;12.40;6.40;;;;;;;;;;757753;184;919320;-68
2021/06/17 07:16:26;;;;;;;9.40;6.30;;;;;;;;;;758087;183;920461;-70
2021/06/17 07:18:51;;;;;;;10.87;5.70;;;;;;;;;;760986;182;931477;-71
2021/06/17 07:21:17;;;;;;;6.60;5.27;;;;;;;;;;759609;182;919569;-70
2021/06/17 07:23:45;;;;;;;9.70;6.80;;;;;;;;;;757046;183;915885;-69
2021/06/17 07:26:09;;;;;;;7.30;5.27;;;;;;;;;;758372;182;920013;-70
2021/06/17 07:28:35;;;;;;;9.30;5.97;;;;;;;;;;764879;182;996145;-69
2021/06/17 07:31:01;;;;;;;15.43;6.30;;;;;;;;;;761640;182;916048;-70
2021/06/17 07:33:28;;;;;;;15.00;6.47;;;;;;;;;;759032;182;918688;-70
2021/06/17 07:35:52;;;;;;;7.13;5.13;;;;;;;;;;766135;183;922375;-71
2021/06/17 07:38:18;;;;;;;8.40;5.60;;;;;;;;;;760213;183;915235;-70
2021/06/17 07:40:44;;;;;;;7.10;5.30;;;;;;;;;;760826;182;921594;-71
2021/06/17 07:43:10;;;;;;;6.80;5.00;;;;;;;;;;768581;182;915094;-71
2021/06/17 07:45:36;;;;;;;6.93;4.97;;;;;;;;;;760506;182;918922;-70
2021/06/17 07:48:02;;;;;;;8.17;6.00;;;;;;;;;;760743;182;1119569;-71
2021/06/17 07:50:28;;;;;;;6.90;5.30;;;;;;;;;;762455;183;919734;-69
2021/06/17 07:52:54;;;;;;;5.72;5.20;;;;;;;;;;760276;183;915691;-69
2021/06/17 07:55:19;;;;;;;6.00;5.30;;;;;;;;;;759201;183;922020;-71
2021/06/17 07:57:45;;;;;;;8.23;5.10;;;;;;;;;;761035;183;917457;-71
2021/06/17 08:00:11;;;;;;;5.60;4.70;;;;;;;;;;766869;182;914506;-71
2021/06/17 08:02:37;;;;;;;7.53;4.40;;;;;;;;;;761886;183;915481;-70
2021/06/17 08:05:03;;;;;;;5.77;4.80;;;;;;;;;;757542;183;923171;-70
2021/06/17 08:07:29;;;;;;;6.27;5.10;;;;;;;;;;751947;186;911641;-71
2021/06/17 08:09:55;;;;;;;9.17;4.67;;;;;;;;;;743806;187;916675;-70
2021/06/17 08:12:23;;;;;;;5.78;5.15;;;;;;;;;;753992;183;930257;-71
2021/06/17 08:14:47;;;;;;;11.27;5.40;;;;;;;;;;761193;183;918220;-71
2021/06/17 08:17:13;;;;;;;7.97;4.60;;;;;;;;;;763920;183;918885;-71
2021/06/17 08:19:38;;;;;;;6.53;4.50;;;;;;;;;;759005;183;917906;-71
2021/06/17 08:22:04;;;;;;;7.30;4.93;;;;;;;;;;756008;183;918112;-70
2021/06/17 08:24:30;;;;;;;7.03;4.30;;;;;;;;;;762696;183;931816;-69
2021/06/17 08:26:56;;;;;;;6.47;4.00;;;;;;;;;;757597;183;918758;-71
2021/06/17 08:29:22;;;;;;;6.67;4.40;;;;;;;;;;758115;183;919744;-69
2021/06/17 08:31:48;;;;;;;10.90;4.97;;;;;;;;;;765526;182;920118;-70
2021/06/17 08:34:13;;;;;;;7.37;3.97;;;;;;;;;;760584;182;918341;-70
2021/06/17 08:36:39;;;;;;;6.40;4.80;;;;;;;;;;760396;182;917575;-70
2021/06/17 08:39:05;;;;;;;6.87;4.10;;;;;;;;;;765959;182;915975;-70
2021/06/17 08:41:31;;;;;;;6.80;4.10;;;;;;;;;;759127;183;919730;-71
2021/06/17 08:43:57;;;;;;;4.97;3.90;;;;;;;;;;758506;182;918429;-70
2021/06/17 08:46:23;;;;;;;8.43;4.77;;;;;;;;;;760145;182;915232;-69
2021/06/17 08:48:49;;;;;;;5.00;4.10;;;;;;;;;;765910;182;919649;-70
2021/06/17 08:51:14;;;;;;;4.33;3.50;;;;;;;;;;759198;184;1018171;-71
2021/06/17 08:53:40;;;;;;;8.07;4.93;;;;;;;;;;754264;183;945030;-69
2021/06/17 08:56:07;;;;;;;8.20;4.50;;;;;;;;;;765626;183;919667;-70
2021/06/17 08:58:32;;;;;;;5.30;4.32;;;;;;;;;;760350;182;919285;-73
2021/06/17 09:00:58;;;;;;;6.90;4.00;;;;;;;;;;761946;182;918783;-70
2021/06/17 09:03:24;;;;;;;8.23;3.97;;;;;;;;;;765980;182;919362;-69
2021/06/17 09:05:49;;;;;;;6.60;4.50;;;;;;;;;;758952;182;919304;-70
2021/06/17 09:08:15;;;;;;;7.13;4.27;;;;;;;;;;758566;184;919701;-70
2021/06/17 09:10:42;;;;;;;7.15;4.60;;;;;;;;;;763436;182;919907;-69
2021/06/17 09:13:07;;;;;;;7.23;4.67;;;;;;;;;;762333;183;919693;-71
2021/06/17 09:15:34;;;;;;;5.50;3.90;;;;;;;;;;759813;183;919481;-71
2021/06/17 09:18:05;;;;;;;6.73;3.90;;;;;;;;;;761381;183;918927;-71
2021/06/17 09:20:31;;;;;;;4.60;4.00;;;;;;;;;;763384;182;919235;-70
2021/06/17 09:22:57;;;;;;;5.57;4.57;;;;;;;;;;760580;182;919048;-72
2021/06/17 09:25:23;;;;;;;4.93;4.43;;;;;;;;;;759857;182;919629;-71
2021/06/17 09:27:55;;;;;;;4.82;3.67;;;;;;;;;;762403;182;919524;-69
2021/06/17 09:30:16;;;;;;;5.43;4.00;;;;;;;;;;770916;180;919117;-70
2021/06/17 09:32:47;;;;;;;9.07;3.50;;;;;;;;;;761092;182;919413;-69
2021/06/17 09:35:30;;;;;;;7.63;5.10;;;;;;;;;;759829;183;968977;-68
2021/06/17 09:37:58;;;;;;;11.33;4.67;;;;;;;;;;755970;184;921898;-70
2021/06/17 09:40:25;;;;;;;6.03;3.70;;;;;;;;;;747758;186;918516;-71
2021/06/17 09:42:50;;;;;;;7.00;4.40;;;;;;;;;;736895;187;918468;-70
2021/06/17 09:45:16;;;;;;;4.70;3.83;;;;;;;;;;737223;187;910168;-71
2021/06/17 09:47:44;;;;;;;5.83;3.80;;;;;;;;;;749135;186;1017538;-71
2021/06/17 09:50:08;;;;;;;9.40;4.33;;;;;;;;;;765746;183;919337;-72
2021/06/17 09:52:36;;;;;;;6.80;3.97;;;;;;;;;;752761;182;1195142;-70
2021/06/17 09:55:02;;;;;;;6.00;3.70;;;;;;;;;;760896;183;921126;-73
2021/06/17 09:57:28;;;;;;;8.18;4.62;;;;;;;;;;763558;182;916221;-70
2021/06/17 09:59:54;;;;;;;6.10;3.73;;;;;;;;;;758840;182;915422;-72
2021/06/17 10:02:23;;;;;;;6.83;3.97;;;;;;;;;;760895;182;916931;-71
2021/06/17 10:04:47;;;;;;;9.57;4.50;;;;;;;;;;763704;182;913697;-71
2021/06/17 10:07:13;;;;;;;6.87;4.95;;;;;;;;;;758988;183;914922;-71
2021/06/17 10:09:38;;;;;;;9.43;4.87;;;;;;;;;;760324;182;913826;-71
2021/06/17 10:12:05;;;;;;;5.72;4.40;;;;;;;;;;764348;182;919250;-70
2021/06/17 10:14:31;;;;;;;6.97;4.20;;;;;;;;;;765123;182;919660;-70
2021/06/17 10:16:58;;;;;;;5.30;4.47;;;;;;;;;;759510;182;920244;-72
2021/06/17 10:19:24;;;;;;;6.43;4.83;;;;;;;;;;761328;183;918958;-70
2021/06/17 10:21:48;;;;;;;5.67;4.77;;;;;;;;;;765070;182;918086;-69
2021/06/17 10:24:16;;;;;;;6.60;4.00;;;;;;;;;;759934;182;919581;-68
2021/06/17 10:26:42;;;;;;;5.57;4.70;;;;;;;;;;760101;182;917249;-70
2021/06/17 10:29:08;;;;;;;5.80;4.68;;;;;;;;;;762614;183;919780;-69
2021/06/17 10:31:44;;;;;;;4.40;3.40;;;;;;;;;;755090;183;923788;-69
2021/06/17 10:34:16;;;;;;;5.00;4.50;;;;;;;;;;756843;183;919731;-71
2021/06/17 10:36:41;;;;;;;7.57;4.40;;;;;;;;;;751879;184;919155;-71
2021/06/17 10:39:15;;;;;;;4.93;4.10;;;;;;;;;;753407;184;918745;-71
2021/06/17 10:42:00;;;;;;;5.50;3.77;;;;;;;;;;751346;186;918642;-72
2021/06/17 10:44:32;;;;;;;7.30;4.50;;;;;;;;;;733682;190;922540;-72
2021/06/17 10:46:57;;;;;;;4.83;4.20;;;;;;;;;;762805;183;919170;-71
2021/06/17 10:49:29;;;;;;;4.50;3.80;;;;;;;;;;757740;182;919623;-73
2021/06/17 10:52:01;;;;;;;4.67;4.20;;;;;;;;;;757414;183;919048;-71
2021/06/17 10:54:27;;;;;;;4.57;4.00;;;;;;;;;;757576;182;919627;-72
2021/06/17 10:56:53;;;;;;;8.30;4.00;;;;;;;;;;764513;182;923189;-72
2021/06/17 10:59:18;;;;;;;10.00;4.43;;;;;;;;;;759044;182;891801;-72
2021/06/17 11:01:45;;;;;;;5.80;3.73;;;;;;;;;;758593;183;915065;-72
2021/06/17 11:04:12;;;;;;;6.00;4.10;;;;;;;;;;762240;183;916338;-71
2021/06/17 11:06:44;;;;;;;6.27;4.30;;;;;;;;;;762994;182;918035;-69
2021/06/17 11:09:15;;;;;;;4.80;3.50;;;;;;;;;;759987;182;918981;-70
2021/06/17 11:11:41;;;;;;;5.17;4.10;;;;;;;;;;757741;184;920636;-69
2021/06/17 11:14:07;;;;;;;7.90;4.20;;;;;;;;;;751368;186;918940;-67
2021/06/17 11:16:33;;;;;;;4.83;4.27;;;;;;;;;;758856;182;918605;-68
2021/06/17 11:19:07;;;;;;;5.00;3.70;;;;;;;;;;762056;182;919596;-69
2021/06/17 11:21:37;;;;;;;5.10;4.03;;;;;;;;;;760275;183;919364;-69
2021/06/17 11:24:23;;;;;;;7.40;4.10;;;;;;;;;;763936;183;918757;-75
2021/06/17 11:26:49;;;;;;;5.53;3.87;;;;;;;;;;765196;183;915865;-71
2021/06/17 11:29:15;;;;;;;6.27;4.50;;;;;;;;;;757264;183;920867;-70
2021/06/17 11:31:42;;;;;;;5.77;4.00;;;;;;;;;;758176;183;919662;-69
2021/06/17 11:34:08;;;;;;;4.90;4.20;;;;;;;;;;761276;182;917491;-70
2021/06/17 11:36:33;;;;;;;4.73;4.00;;;;;;;;;;766588;182;933907;-71
2021/06/17 11:39:02;;;;;;;5.30;4.80;;;;;;;;;;756880;183;922341;-70
2021/06/17 11:41:29;;;;;;;5.30;4.00;;;;;;;;;;752632;184;918858;-70
2021/06/17 11:43:53;;;;;;;5.63;3.63;;;;;;;;;;759533;184;1019384;-71
2021/06/17 11:46:23;;;;;;;5.83;4.33;;;;;;;;;;759048;182;919109;-69
2021/06/17 11:48:48;;;;;;;5.13;4.20;;;;;;;;;;756311;182;920076;-71
2021/06/17 11:51:14;;;;;;;5.13;4.13;;;;;;;;;;759433;183;927127;-70
2021/06/17 11:53:40;;;;;;;6.30;3.93;;;;;;;;;;761006;183;917293;-70
2021/06/17 11:56:06;;;;;;;6.00;4.20;;;;;;;;;;758901;182;919624;-69
2021/06/17 11:58:32;;;;;;;4.87;3.90;;;;;;;;;;759946;182;919042;-69
2021/06/17 12:00:58;;;;;;;5.77;3.90;;;;;;;;;;765876;182;916576;-70
2021/06/17 12:03:24;;;;;;;5.37;3.97;;;;;;;;;;762255;182;915607;-71
2021/06/17 12:05:52;;;;;;;5.50;4.40;;;;;;;;;;760861;183;914667;-69
2021/06/17 12:08:18;;;;;;;5.63;3.90;;;;;;;;;;765263;183;914371;-71
2021/06/17 12:10:47;;;;;;;5.50;3.93;;;;;;;;;;757681;182;916621;-70
2021/06/17 12:13:10;;;;;;;4.17;3.50;;;;;;;;;;757074;182;915308;-69
2021/06/17 12:15:37;;;;;;;7.00;4.10;;;;;;;;;;757657;183;919327;-69
2021/06/17 12:18:03;;;;;;;6.37;4.07;;;;;;;;;;763170;183;918462;-71
2021/06/17 12:20:32;;;;;;;6.30;3.90;;;;;;;;;;760763;182;919421;-71
2021/06/17 12:23:05;;;;;;;8.93;4.60;;;;;;;;;;760018;182;927470;-70
2021/06/17 12:25:40;;;;;;;5.27;4.60;;;;;;;;;;759827;182;919109;-69
2021/06/17 12:28:07;;;;;;;6.47;4.10;;;;;;;;;;762020;181;918529;-70
2021/06/17 12:30:35;;;;;;;4.67;3.90;;;;;;;;;;761119;182;946710;-69
2021/06/17 12:33:15;;;;;;;4.95;4.32;;;;;;;;;;763882;182;918356;-70
2021/06/17 12:35:42;;;;;;;5.90;4.67;;;;;;;;;;764798;182;634168;-70
2021/06/17 12:38:08;;;;;;;7.10;3.93;;;;;;;;;;764652;182;624854;-71
2021/06/17 12:40:35;;;;;;;6.80;4.00;;;;;;;;;;765070;184;629803;-68
2021/06/17 12:43:15;;;;;;;8.00;4.40;;;;;;;;;;764354;182;636248;-70
2021/06/17 12:45:41;;;;;;;4.17;3.77;;;;;;;;;;765849;182;629654;-70
2021/06/17 12:48:13;;;;;;;7.30;4.60;;;;;;;;;;764248;182;726109;-68
2021/06/17 12:53:06;;;;;;;6.93;3.90;;;;;;;;;;762855;183;619533;-70
2021/06/17 12:55:34;;;;;;;8.43;3.90;;;;;;;;;;766414;183;630421;-71
2021/06/17 12:58:00;;;;;;;5.87;5.10;;;;;;;;;;765478;183;625789;-72
2021/06/17 13:00:26;;;;;;;5.47;3.93;;;;;;;;;;759359;184;625212;-70
2021/06/17 13:02:53;;;;;;;4.67;3.97;;;;;;;;;;757889;183;626559;-70
2021/06/17 13:05:18;;;;;;;6.00;3.80;;;;;;;;;;751554;186;629157;-68
2021/06/17 13:07:49;;;;;;;9.53;4.10;;;;;;;;;;742487;190;624890;-70
2021/06/17 13:10:16;;;;;;;5.73;3.97;;;;;;;;;;749476;186;641730;-70
2021/06/17 13:12:42;;;;;;;8.63;4.00;;;;;;;;;;764547;183;629588;-68
2021/06/17 13:15:09;;;;;;;5.07;3.83;;;;;;;;;;764560;182;633703;-67
2021/06/17 13:17:36;;;;;;;17.97;5.30;;;;;;;;;;759654;183;625355;-71
2021/06/17 13:20:02;;;;;;;5.93;4.40;;;;;;;;;;762681;182;628138;-70
2021/06/17 13:22:28;;;;;;;5.00;4.13;;;;;;;;;;764590;182;631210;-69
2021/06/17 13:24:57;;;;;;;5.97;4.10;;;;;;;;;;767557;183;625248;-68
2021/06/17 13:27:20;;;;;;;4.73;3.83;;;;;;;;;;762885;182;779020;-68
2021/06/17 13:29:48;;;;;;;4.23;3.83;;;;;;;;;;761838;182;649555;-69
2021/06/17 13:32:15;;;;;;;6.00;3.83;;;;;;;;;;763975;183;640358;-68
2021/06/17 13:34:40;;;;;;;6.97;4.27;;;;;;;;;;773567;180;616761;-70
2021/06/17 13:37:06;;;;;;;8.07;4.30;;;;;;;;;;764841;182;736914;-68
2021/06/17 13:39:32;;;;;;;12.47;4.07;;;;;;;;;;766978;181;618582;-69
2021/06/17 13:41:58;;;;;;;7.97;4.17;;;;;;;;;;768304;182;614608;-67
2021/06/17 13:44:24;;;;;;;5.70;4.10;;;;;;;;;;764996;182;630858;-71
2021/06/17 13:46:49;;;;;;;6.77;4.07;;;;;;;;;;763215;182;619142;-68
2021/06/17 13:49:15;;;;;;;5.40;4.43;;;;;;;;;;769014;182;638804;-68
2021/06/17 13:51:41;;;;;;;5.90;3.63;;;;;;;;;;767180;182;621075;-69
2021/06/17 13:54:07;;;;;;;5.20;3.77;;;;;;;;;;764886;183;628602;-68
2021/06/17 13:56:33;;;;;;;7.37;4.20;;;;;;;;;;762193;184;628802;-69
2021/06/17 13:58:58;;;;;;;5.47;4.33;;;;;;;;;;763684;183;623204;-68
2021/06/17 14:01:24;;;;;;;5.37;4.57;;;;;;;;;;765857;183;618208;-68
2021/06/17 14:03:50;;;;;;;5.73;4.30;;;;;;;;;;763127;182;742340;-69
2021/06/17 14:06:16;;;;;;;5.47;4.60;;;;;;;;;;771030;181;626302;-69
2021/06/17 14:08:43;;;;;;;6.40;4.10;;;;;;;;;;764346;183;627807;-68
2021/06/17 14:11:08;;;;;;;4.33;3.87;;;;;;;;;;764513;183;629400;-69
2021/06/17 14:13:34;;;;;;;6.07;3.80;;;;;;;;;;762857;183;631195;-70
2021/06/17 14:15:59;;;;;;;6.80;4.33;;;;;;;;;;756751;184;626793;-69
2021/06/17 14:18:25;;;;;;;5.70;4.40;;;;;;;;;;755427;185;882662;-70
2021/06/17 14:20:51;;;;;;;7.03;4.20;;;;;;;;;;759409;184;621373;-71